sensor_id;sensor_type;location;lat;lon;timestamp;temperature;humidity
20590;DHT22;10453;50.810;12.540;2022-07-12T00:00:00;13.80;99.90
20590;DHT22;10453;50.810;12.540;2022-07-12T00:04:18;13.80;99.90
20590;DHT22;10453;50.810;12.540;2022-07-12T00:08:35;13.90;99.90
20590;DHT22;10453;50.810;12.540;2022-07-12T00:12:52;14.00;99.90
20590;DHT22;10453;50.810;12.540;2022-07-12T00:17:11;14.00;99.90
20590;DHT22;10453;50.810;12.540;2022-07-12T00:21:29;14.00;99.90
20590;DHT22;10453;50.810;12.540;2022-07-12T00:25:46;14.00;99.90
20590;DHT22;10453;50.810;12.540;2022-07-12T00:30:05;14.20;99.90
20590;DHT22;10453;50.810;12.540;2022-07-12T00:34:23;14.30;99.90
20590;DHT22;10453;50.810;12.540;2022-07-12T00:38:40;14.40;99.90
20590;DHT22;10453;50.810;12.540;2022-07-12T00:42:57;14.50;99.90
20590;DHT22;10453;50.810;12.540;2022-07-12T00:47:42;14.60;99.90
20590;DHT22;10453;50.810;12.540;2022-07-12T00:52:01;14.60;99.90
20590;DHT22;10453;50.810;12.540;2022-07-12T00:56:18;14.70;99.90
20590;DHT22;10453;50.810;12.540;2022-07-12T01:00:35;14.70;99.90
20590;DHT22;10453;50.810;12.540;2022-07-12T01:04:53;14.80;99.90
20590;DHT22;10453;50.810;12.540;2022-07-12T01:09:11;14.90;99.90
20590;DHT22;10453;50.810;12.540;2022-07-12T01:13:29;14.80;99.90
20590;DHT22;10453;50.810;12.540;2022-07-12T01:17:47;14.90;99.90
20590;DHT22;10453;50.810;12.540;2022-07-12T01:22:10;14.90;99.90
20590;DHT22;10453;50.810;12.540;2022-07-12T01:26:27;14.90;99.90
20590;DHT22;10453;50.810;12.540;2022-07-12T01:30:45;15.10;99.90
20590;DHT22;10453;50.810;12.540;2022-07-12T01:35:06;15.10;99.90
20590;DHT22;10453;50.810;12.540;2022-07-12T01:39:23;15.00;99.90
20590;DHT22;10453;50.810;12.540;2022-07-12T01:43:40;15.20;99.90
20590;DHT22;10453;50.810;12.540;2022-07-12T01:47:57;15.20;99.90
20590;DHT22;10453;50.810;12.540;2022-07-12T01:52:16;15.20;99.90
20590;DHT22;10453;50.810;12.540;2022-07-12T01:56:34;15.20;99.90
20590;DHT22;10453;50.810;12.540;2022-07-12T02:00:52;15.20;99.90
20590;DHT22;10453;50.810;12.540;2022-07-12T02:05:10;15.30;99.90
20590;DHT22;10453;50.810;12.540;2022-07-12T02:09:27;15.30;99.90
20590;DHT22;10453;50.810;12.540;2022-07-12T02:13:44;15.20;99.90
20590;DHT22;10453;50.810;12.540;2022-07-12T02:18:02;15.30;99.90
20590;DHT22;10453;50.810;12.540;2022-07-12T02:22:19;15.30;99.90
20590;DHT22;10453;50.810;12.540;2022-07-12T02:26:37;15.30;99.90
20590;DHT22;10453;50.810;12.540;2022-07-12T02:30:54;15.30;99.90
20590;DHT22;10453;50.810;12.540;2022-07-12T02:35:11;15.30;99.90
20590;DHT22;10453;50.810;12.540;2022-07-12T02:39:29;15.20;99.90
20590;DHT22;10453;50.810;12.540;2022-07-12T02:43:46;15.30;99.90
20590;DHT22;10453;50.810;12.540;2022-07-12T02:48:04;15.20;99.90
20590;DHT22;10453;50.810;12.540;2022-07-12T02:52:21;15.30;99.90
20590;DHT22;10453;50.810;12.540;2022-07-12T02:56:38;15.30;99.90
20590;DHT22;10453;50.810;12.540;2022-07-12T03:00:55;15.30;99.90
20590;DHT22;10453;50.810;12.540;2022-07-12T03:05:13;15.20;99.90
20590;DHT22;10453;50.810;12.540;2022-07-12T03:09:30;15.20;99.90
20590;DHT22;10453;50.810;12.540;2022-07-12T03:13:48;15.10;99.90
20590;DHT22;10453;50.810;12.540;2022-07-12T03:18:05;15.10;99.90
20590;DHT22;10453;50.810;12.540;2022-07-12T03:22:23;15.20;99.90
20590;DHT22;10453;50.810;12.540;2022-07-12T03:26:40;15.10;99.90
20590;DHT22;10453;50.810;12.540;2022-07-12T03:30:57;15.10;99.90
20590;DHT22;10453;50.810;12.540;2022-07-12T03:35:15;15.10;99.90
20590;DHT22;10453;50.810;12.540;2022-07-12T03:39:32;15.10;99.90
20590;DHT22;10453;50.810;12.540;2022-07-12T03:43:51;15.00;99.90
20590;DHT22;10453;50.810;12.540;2022-07-12T03:48:08;14.90;99.90
20590;DHT22;10453;50.810;12.540;2022-07-12T03:52:26;14.90;99.90
20590;DHT22;10453;50.810;12.540;2022-07-12T03:56:43;14.90;99.90
20590;DHT22;10453;50.810;12.540;2022-07-12T04:01:19;14.90;99.90
20590;DHT22;10453;50.810;12.540;2022-07-12T04:05:39;14.90;99.90
20590;DHT22;10453;50.810;12.540;2022-07-12T04:09:57;14.90;99.90
20590;DHT22;10453;50.810;12.540;2022-07-12T04:14:14;14.90;99.90
20590;DHT22;10453;50.810;12.540;2022-07-12T04:18:32;15.00;99.90
20590;DHT22;10453;50.810;12.540;2022-07-12T04:22:49;15.00;99.90
20590;DHT22;10453;50.810;12.540;2022-07-12T04:27:07;15.10;99.90
20590;DHT22;10453;50.810;12.540;2022-07-12T04:31:25;15.20;99.90
20590;DHT22;10453;50.810;12.540;2022-07-12T04:35:42;15.10;99.90
20590;DHT22;10453;50.810;12.540;2022-07-12T04:39:59;15.10;99.90
20590;DHT22;10453;50.810;12.540;2022-07-12T04:44:16;15.20;99.90
20590;DHT22;10453;50.810;12.540;2022-07-12T04:48:34;15.10;99.90
20590;DHT22;10453;50.810;12.540;2022-07-12T04:52:51;15.30;99.90
20590;DHT22;10453;50.810;12.540;2022-07-12T04:57:09;15.30;99.90
20590;DHT22;10453;50.810;12.540;2022-07-12T05:01:29;15.50;99.90
20590;DHT22;10453;50.810;12.540;2022-07-12T05:05:46;15.70;99.90
20590;DHT22;10453;50.810;12.540;2022-07-12T05:10:04;15.70;99.90
20590;DHT22;10453;50.810;12.540;2022-07-12T05:14:22;15.80;99.90
20590;DHT22;10453;50.810;12.540;2022-07-12T05:18:40;15.90;99.90
20590;DHT22;10453;50.810;12.540;2022-07-12T05:22:57;15.80;99.90
20590;DHT22;10453;50.810;12.540;2022-07-12T05:27:14;15.80;99.90
20590;DHT22;10453;50.810;12.540;2022-07-12T05:31:32;15.80;99.90
20590;DHT22;10453;50.810;12.540;2022-07-12T05:35:49;15.90;99.90
20590;DHT22;10453;50.810;12.540;2022-07-12T05:40:08;16.30;99.90
20590;DHT22;10453;50.810;12.540;2022-07-12T05:44:26;16.10;99.90
20590;DHT22;10453;50.810;12.540;2022-07-12T05:48:43;16.30;99.90
20590;DHT22;10453;50.810;12.540;2022-07-12T05:53:01;16.20;99.90
20590;DHT22;10453;50.810;12.540;2022-07-12T05:57:37;16.20;99.90
20590;DHT22;10453;50.810;12.540;2022-07-12T06:01:54;16.40;99.90
20590;DHT22;10453;50.810;12.540;2022-07-12T06:06:11;16.40;99.90
20590;DHT22;10453;50.810;12.540;2022-07-12T06:10:28;16.40;99.90
20590;DHT22;10453;50.810;12.540;2022-07-12T06:14:46;16.80;99.90
20590;DHT22;10453;50.810;12.540;2022-07-12T06:19:05;16.50;99.90
20590;DHT22;10453;50.810;12.540;2022-07-12T06:23:22;16.10;99.90
20590;DHT22;10453;50.810;12.540;2022-07-12T06:27:39;16.30;99.90
20590;DHT22;10453;50.810;12.540;2022-07-12T06:31:56;16.60;99.90
20590;DHT22;10453;50.810;12.540;2022-07-12T06:36:13;16.70;99.90
20590;DHT22;10453;50.810;12.540;2022-07-12T06:40:31;16.90;99.90
20590;DHT22;10453;50.810;12.540;2022-07-12T06:44:48;17.00;99.90
20590;DHT22;10453;50.810;12.540;2022-07-12T06:49:06;17.20;99.90
20590;DHT22;10453;50.810;12.540;2022-07-12T06:53:23;17.10;99.90
20590;DHT22;10453;50.810;12.540;2022-07-12T06:57:41;17.10;99.90
20590;DHT22;10453;50.810;12.540;2022-07-12T07:01:58;17.20;99.90
20590;DHT22;10453;50.810;12.540;2022-07-12T07:06:16;17.10;99.90
20590;DHT22;10453;50.810;12.540;2022-07-12T07:10:33;17.30;99.90
20590;DHT22;10453;50.810;12.540;2022-07-12T07:14:50;17.10;99.90
20590;DHT22;10453;50.810;12.540;2022-07-12T07:19:07;16.90;99.90
20590;DHT22;10453;50.810;12.540;2022-07-12T07:23:25;16.80;99.90
20590;DHT22;10453;50.810;12.540;2022-07-12T07:27:42;17.10;99.90
20590;DHT22;10453;50.810;12.540;2022-07-12T07:32:01;17.20;99.90
20590;DHT22;10453;50.810;12.540;2022-07-12T07:36:18;16.70;99.90
20590;DHT22;10453;50.810;12.540;2022-07-12T07:40:35;16.90;99.90
20590;DHT22;10453;50.810;12.540;2022-07-12T07:44:53;16.70;99.90
20590;DHT22;10453;50.810;12.540;2022-07-12T07:49:30;17.10;99.90
20590;DHT22;10453;50.810;12.540;2022-07-12T07:53:47;17.60;99.90
20590;DHT22;10453;50.810;12.540;2022-07-12T07:58:04;19.00;99.90
20590;DHT22;10453;50.810;12.540;2022-07-12T08:02:22;20.10;99.90
20590;DHT22;10453;50.810;12.540;2022-07-12T08:06:39;19.50;99.90
20590;DHT22;10453;50.810;12.540;2022-07-12T08:10:57;20.40;99.90
20590;DHT22;10453;50.810;12.540;2022-07-12T08:15:14;21.10;99.90
20590;DHT22;10453;50.810;12.540;2022-07-12T08:19:31;21.40;99.90
20590;DHT22;10453;50.810;12.540;2022-07-12T08:23:50;22.30;99.90
20590;DHT22;10453;50.810;12.540;2022-07-12T08:28:08;22.30;99.90
20590;DHT22;10453;50.810;12.540;2022-07-12T08:32:25;22.10;99.90
20590;DHT22;10453;50.810;12.540;2022-07-12T08:36:42;22.70;99.40
20590;DHT22;10453;50.810;12.540;2022-07-12T08:40:59;23.20;94.90
20590;DHT22;10453;50.810;12.540;2022-07-12T08:45:17;22.60;97.10
20590;DHT22;10453;50.810;12.540;2022-07-12T08:49:35;23.20;96.10
20590;DHT22;10453;50.810;12.540;2022-07-12T08:54:06;23.90;93.60
20590;DHT22;10453;50.810;12.540;2022-07-12T08:58:24;23.30;90.10
20590;DHT22;10453;50.810;12.540;2022-07-12T09:02:49;24.20;90.90
20590;DHT22;10453;50.810;12.540;2022-07-12T09:07:13;25.30;82.10
20590;DHT22;10453;50.810;12.540;2022-07-12T09:11:31;24.90;86.40
20590;DHT22;10453;50.810;12.540;2022-07-12T09:15:48;22.40;87.80
20590;DHT22;10453;50.810;12.540;2022-07-12T09:20:09;22.80;90.90
20590;DHT22;10453;50.810;12.540;2022-07-12T09:24:28;22.30;93.40
20590;DHT22;10453;50.810;12.540;2022-07-12T09:28:49;24.70;85.90
20590;DHT22;10453;50.810;12.540;2022-07-12T09:33:07;26.20;76.90
20590;DHT22;10453;50.810;12.540;2022-07-12T09:37:43;25.10;80.60
20590;DHT22;10453;50.810;12.540;2022-07-12T09:42:01;24.50;73.20
20590;DHT22;10453;50.810;12.540;2022-07-12T09:46:19;25.00;77.30
20590;DHT22;10453;50.810;12.540;2022-07-12T09:50:36;24.40;72.90
20590;DHT22;10453;50.810;12.540;2022-07-12T09:54:55;23.50;76.10
20590;DHT22;10453;50.810;12.540;2022-07-12T09:59:14;21.90;78.50
20590;DHT22;10453;50.810;12.540;2022-07-12T10:03:35;24.10;75.60
20590;DHT22;10453;50.810;12.540;2022-07-12T10:07:53;26.40;67.00
20590;DHT22;10453;50.810;12.540;2022-07-12T10:12:14;27.20;68.30
20590;DHT22;10453;50.810;12.540;2022-07-12T10:16:34;23.80;69.30
20590;DHT22;10453;50.810;12.540;2022-07-12T10:20:52;24.30;64.30
20590;DHT22;10453;50.810;12.540;2022-07-12T10:25:30;24.80;69.80
20590;DHT22;10453;50.810;12.540;2022-07-12T10:29:51;24.90;64.60
20590;DHT22;10453;50.810;12.540;2022-07-12T10:34:13;23.50;68.50
20590;DHT22;10453;50.810;12.540;2022-07-12T10:38:31;25.60;74.60
20590;DHT22;10453;50.810;12.540;2022-07-12T10:47:21;28.00;59.70
20590;DHT22;10453;50.810;12.540;2022-07-12T10:51:39;24.60;61.10
20590;DHT22;10453;50.810;12.540;2022-07-12T11:00:46;27.40;60.00
20590;DHT22;10453;50.810;12.540;2022-07-12T11:05:07;26.90;57.50
20590;DHT22;10453;50.810;12.540;2022-07-12T11:09:26;28.00;59.20
20590;DHT22;10453;50.810;12.540;2022-07-12T11:13:43;27.40;55.60
20590;DHT22;10453;50.810;12.540;2022-07-12T11:18:00;26.80;54.80
20590;DHT22;10453;50.810;12.540;2022-07-12T11:22:17;24.70;60.80
20590;DHT22;10453;50.810;12.540;2022-07-12T11:26:35;26.50;65.10
20590;DHT22;10453;50.810;12.540;2022-07-12T11:30:54;26.50;55.90
20590;DHT22;10453;50.810;12.540;2022-07-12T11:35:19;25.00;58.40
20590;DHT22;10453;50.810;12.540;2022-07-12T11:39:37;24.20;62.90
20590;DHT22;10453;50.810;12.540;2022-07-12T11:43:54;27.20;59.60
20590;DHT22;10453;50.810;12.540;2022-07-12T11:48:12;25.20;59.40
20590;DHT22;10453;50.810;12.540;2022-07-12T11:52:30;24.20;64.40
20590;DHT22;10453;50.810;12.540;2022-07-12T11:56:47;25.60;57.10
20590;DHT22;10453;50.810;12.540;2022-07-12T12:01:10;23.80;60.30
20590;DHT22;10453;50.810;12.540;2022-07-12T12:05:28;23.30;62.20
20590;DHT22;10453;50.810;12.540;2022-07-12T12:10:05;26.60;60.60
20590;DHT22;10453;50.810;12.540;2022-07-12T12:14:23;27.90;54.40
20590;DHT22;10453;50.810;12.540;2022-07-12T12:18:41;26.90;56.60
20590;DHT22;10453;50.810;12.540;2022-07-12T12:23:06;28.50;53.70
20590;DHT22;10453;50.810;12.540;2022-07-12T12:27:31;28.40;58.10
20590;DHT22;10453;50.810;12.540;2022-07-12T12:32:17;27.70;54.00
20590;DHT22;10453;50.810;12.540;2022-07-12T12:36:37;27.90;51.80
20590;DHT22;10453;50.810;12.540;2022-07-12T12:40:56;26.50;56.70
20590;DHT22;10453;50.810;12.540;2022-07-12T12:45:18;26.00;56.10
20590;DHT22;10453;50.810;12.540;2022-07-12T12:49:48;27.80;56.00
20590;DHT22;10453;50.810;12.540;2022-07-12T12:54:13;28.50;53.30
20590;DHT22;10453;50.810;12.540;2022-07-12T12:58:30;27.30;52.30
20590;DHT22;10453;50.810;12.540;2022-07-12T13:02:48;27.70;51.50
20590;DHT22;10453;50.810;12.540;2022-07-12T13:07:07;28.10;56.00
20590;DHT22;10453;50.810;12.540;2022-07-12T13:11:29;28.70;51.90
20590;DHT22;10453;50.810;12.540;2022-07-12T13:15:46;28.70;52.20
20590;DHT22;10453;50.810;12.540;2022-07-12T13:20:04;28.80;50.20
20590;DHT22;10453;50.810;12.540;2022-07-12T13:24:24;29.50;50.00
20590;DHT22;10453;50.810;12.540;2022-07-12T13:28:41;29.90;48.70
20590;DHT22;10453;50.810;12.540;2022-07-12T13:32:59;30.00;54.80
20590;DHT22;10453;50.810;12.540;2022-07-12T13:37:16;31.10;51.30
20590;DHT22;10453;50.810;12.540;2022-07-12T13:41:34;29.50;48.50
20590;DHT22;10453;50.810;12.540;2022-07-12T13:45:52;27.60;49.70
20590;DHT22;10453;50.810;12.540;2022-07-12T13:50:16;28.50;48.80
20590;DHT22;10453;50.810;12.540;2022-07-12T13:54:33;29.30;48.70
20590;DHT22;10453;50.810;12.540;2022-07-12T13:58:51;28.50;49.10
20590;DHT22;10453;50.810;12.540;2022-07-12T14:03:08;29.10;48.60
20590;DHT22;10453;50.810;12.540;2022-07-12T14:07:26;29.20;52.20
20590;DHT22;10453;50.810;12.540;2022-07-12T14:11:43;30.10;46.90
20590;DHT22;10453;50.810;12.540;2022-07-12T14:16:00;30.10;50.10
20590;DHT22;10453;50.810;12.540;2022-07-12T14:20:20;30.00;48.10
20590;DHT22;10453;50.810;12.540;2022-07-12T14:24:38;29.60;46.60
20590;DHT22;10453;50.810;12.540;2022-07-12T14:28:55;30.60;48.30
20590;DHT22;10453;50.810;12.540;2022-07-12T14:33:12;30.20;45.70
20590;DHT22;10453;50.810;12.540;2022-07-12T14:37:30;30.40;46.00
20590;DHT22;10453;50.810;12.540;2022-07-12T14:41:47;31.50;43.90
20590;DHT22;10453;50.810;12.540;2022-07-12T14:46:04;30.60;47.40
20590;DHT22;10453;50.810;12.540;2022-07-12T14:50:21;29.60;50.40
20590;DHT22;10453;50.810;12.540;2022-07-12T14:54:39;30.60;47.00
20590;DHT22;10453;50.810;12.540;2022-07-12T14:58:56;29.80;49.50
20590;DHT22;10453;50.810;12.540;2022-07-12T15:03:13;29.90;49.30
20590;DHT22;10453;50.810;12.540;2022-07-12T15:07:31;29.70;47.50
20590;DHT22;10453;50.810;12.540;2022-07-12T15:11:49;30.10;47.70
20590;DHT22;10453;50.810;12.540;2022-07-12T15:16:06;30.50;45.20
20590;DHT22;10453;50.810;12.540;2022-07-12T15:20:23;30.20;44.50
20590;DHT22;10453;50.810;12.540;2022-07-12T15:24:49;29.50;45.40
20590;DHT22;10453;50.810;12.540;2022-07-12T15:29:06;29.20;45.40
20590;DHT22;10453;50.810;12.540;2022-07-12T15:33:24;29.20;46.50
20590;DHT22;10453;50.810;12.540;2022-07-12T15:37:41;29.60;46.80
20590;DHT22;10453;50.810;12.540;2022-07-12T15:41:58;30.00;45.00
20590;DHT22;10453;50.810;12.540;2022-07-12T15:46:16;30.10;49.40
20590;DHT22;10453;50.810;12.540;2022-07-12T15:50:33;29.40;45.90
20590;DHT22;10453;50.810;12.540;2022-07-12T15:54:51;29.20;47.40
20590;DHT22;10453;50.810;12.540;2022-07-12T15:59:08;28.40;48.10
20590;DHT22;10453;50.810;12.540;2022-07-12T16:03:26;27.60;47.10
20590;DHT22;10453;50.810;12.540;2022-07-12T16:07:44;26.90;49.30
20590;DHT22;10453;50.810;12.540;2022-07-12T16:12:01;27.10;49.30
20590;DHT22;10453;50.810;12.540;2022-07-12T16:16:18;26.80;50.20
20590;DHT22;10453;50.810;12.540;2022-07-12T16:20:36;26.70;50.00
20590;DHT22;10453;50.810;12.540;2022-07-12T16:24:53;26.70;49.70
20590;DHT22;10453;50.810;12.540;2022-07-12T16:29:11;26.30;49.20
20590;DHT22;10453;50.810;12.540;2022-07-12T16:33:28;26.00;50.80
20590;DHT22;10453;50.810;12.540;2022-07-12T16:37:45;25.80;52.10
20590;DHT22;10453;50.810;12.540;2022-07-12T16:42:03;25.60;51.00
20590;DHT22;10453;50.810;12.540;2022-07-12T16:46:21;25.40;52.40
20590;DHT22;10453;50.810;12.540;2022-07-12T16:50:38;25.40;51.30
20590;DHT22;10453;50.810;12.540;2022-07-12T16:54:56;25.30;52.20
20590;DHT22;10453;50.810;12.540;2022-07-12T16:59:14;25.30;55.40
20590;DHT22;10453;50.810;12.540;2022-07-12T17:03:31;25.30;52.70
20590;DHT22;10453;50.810;12.540;2022-07-12T17:07:50;25.20;52.30
20590;DHT22;10453;50.810;12.540;2022-07-12T17:12:08;24.90;56.10
20590;DHT22;10453;50.810;12.540;2022-07-12T17:16:27;24.60;54.50
20590;DHT22;10453;50.810;12.540;2022-07-12T17:20:45;24.70;54.00
20590;DHT22;10453;50.810;12.540;2022-07-12T17:25:03;24.70;55.20
20590;DHT22;10453;50.810;12.540;2022-07-12T17:29:29;24.60;55.60
20590;DHT22;10453;50.810;12.540;2022-07-12T17:33:47;24.50;54.40
20590;DHT22;10453;50.810;12.540;2022-07-12T17:38:09;24.50;55.80
20590;DHT22;10453;50.810;12.540;2022-07-12T17:42:27;24.30;55.90
20590;DHT22;10453;50.810;12.540;2022-07-12T17:46:45;24.30;56.50
20590;DHT22;10453;50.810;12.540;2022-07-12T17:51:05;24.20;55.30
20590;DHT22;10453;50.810;12.540;2022-07-12T17:55:23;24.20;55.80
20590;DHT22;10453;50.810;12.540;2022-07-12T17:59:40;24.10;57.00
20590;DHT22;10453;50.810;12.540;2022-07-12T18:03:57;24.00;58.50
20590;DHT22;10453;50.810;12.540;2022-07-12T18:08:15;23.80;61.90
20590;DHT22;10453;50.810;12.540;2022-07-12T18:12:32;23.60;60.00
20590;DHT22;10453;50.810;12.540;2022-07-12T18:17:13;23.20;61.40
20590;DHT22;10453;50.810;12.540;2022-07-12T18:21:49;22.90;65.50
20590;DHT22;10453;50.810;12.540;2022-07-12T18:26:06;22.70;66.60
20590;DHT22;10453;50.810;12.540;2022-07-12T18:30:24;22.40;65.60
20590;DHT22;10453;50.810;12.540;2022-07-12T18:34:48;22.30;68.70
20590;DHT22;10453;50.810;12.540;2022-07-12T18:39:05;22.10;69.10
20590;DHT22;10453;50.810;12.540;2022-07-12T18:43:23;21.70;70.70
20590;DHT22;10453;50.810;12.540;2022-07-12T18:47:40;21.40;72.10
20590;DHT22;10453;50.810;12.540;2022-07-12T18:51:57;21.00;74.60
20590;DHT22;10453;50.810;12.540;2022-07-12T18:56:15;20.90;76.80
20590;DHT22;10453;50.810;12.540;2022-07-12T19:00:32;20.70;79.20
20590;DHT22;10453;50.810;12.540;2022-07-12T19:04:50;20.30;82.40
20590;DHT22;10453;50.810;12.540;2022-07-12T19:09:08;20.00;87.10
20590;DHT22;10453;50.810;12.540;2022-07-12T19:13:25;19.70;90.30
20590;DHT22;10453;50.810;12.540;2022-07-12T19:17:44;19.40;94.70
20590;DHT22;10453;50.810;12.540;2022-07-12T19:22:01;19.30;99.80
20590;DHT22;10453;50.810;12.540;2022-07-12T19:26:18;19.00;99.90
20590;DHT22;10453;50.810;12.540;2022-07-12T19:30:35;18.70;99.90
20590;DHT22;10453;50.810;12.540;2022-07-12T19:34:53;18.50;99.90
20590;DHT22;10453;50.810;12.540;2022-07-12T19:39:11;18.20;99.90
20590;DHT22;10453;50.810;12.540;2022-07-12T19:43:28;18.00;99.90
20590;DHT22;10453;50.810;12.540;2022-07-12T19:47:47;17.80;99.90
20590;DHT22;10453;50.810;12.540;2022-07-12T19:52:05;17.70;99.90
20590;DHT22;10453;50.810;12.540;2022-07-12T19:56:23;17.60;99.90
20590;DHT22;10453;50.810;12.540;2022-07-12T20:00:40;17.50;99.90
20590;DHT22;10453;50.810;12.540;2022-07-12T20:04:57;17.30;99.90
20590;DHT22;10453;50.810;12.540;2022-07-12T20:09:14;17.20;99.90
20590;DHT22;10453;50.810;12.540;2022-07-12T20:13:32;17.00;99.90
20590;DHT22;10453;50.810;12.540;2022-07-12T20:17:49;16.80;99.90
20590;DHT22;10453;50.810;12.540;2022-07-12T20:22:07;16.80;99.90
20590;DHT22;10453;50.810;12.540;2022-07-12T20:26:26;16.70;99.90
20590;DHT22;10453;50.810;12.540;2022-07-12T20:30:43;16.60;99.90
20590;DHT22;10453;50.810;12.540;2022-07-12T20:35:00;16.40;99.90
20590;DHT22;10453;50.810;12.540;2022-07-12T20:39:18;16.20;99.90
20590;DHT22;10453;50.810;12.540;2022-07-12T20:43:38;16.30;99.90
20590;DHT22;10453;50.810;12.540;2022-07-12T20:47:56;16.30;99.90
20590;DHT22;10453;50.810;12.540;2022-07-12T20:52:13;16.40;99.90
20590;DHT22;10453;50.810;12.540;2022-07-12T20:56:31;16.20;99.90
20590;DHT22;10453;50.810;12.540;2022-07-12T21:00:48;16.10;99.90
20590;DHT22;10453;50.810;12.540;2022-07-12T21:05:06;15.90;99.90
20590;DHT22;10453;50.810;12.540;2022-07-12T21:09:24;15.80;99.90
20590;DHT22;10453;50.810;12.540;2022-07-12T21:13:41;15.70;99.90
20590;DHT22;10453;50.810;12.540;2022-07-12T21:17:59;15.40;99.90
20590;DHT22;10453;50.810;12.540;2022-07-12T21:22:16;15.20;99.90
20590;DHT22;10453;50.810;12.540;2022-07-12T21:26:33;15.20;99.90
20590;DHT22;10453;50.810;12.540;2022-07-12T21:30:51;15.10;99.90
20590;DHT22;10453;50.810;12.540;2022-07-12T21:35:08;14.90;99.90
20590;DHT22;10453;50.810;12.540;2022-07-12T21:39:25;14.70;99.90
20590;DHT22;10453;50.810;12.540;2022-07-12T21:43:43;14.70;99.90
20590;DHT22;10453;50.810;12.540;2022-07-12T21:48:00;14.50;99.90
20590;DHT22;10453;50.810;12.540;2022-07-12T21:52:17;14.40;99.90
20590;DHT22;10453;50.810;12.540;2022-07-12T21:56:35;14.20;99.90
20590;DHT22;10453;50.810;12.540;2022-07-12T22:00:54;14.20;99.90
20590;DHT22;10453;50.810;12.540;2022-07-12T22:05:12;14.20;99.90
20590;DHT22;10453;50.810;12.540;2022-07-12T22:09:29;14.20;99.90
20590;DHT22;10453;50.810;12.540;2022-07-12T22:13:46;14.20;99.90
20590;DHT22;10453;50.810;12.540;2022-07-12T22:18:03;14.10;99.90
20590;DHT22;10453;50.810;12.540;2022-07-12T22:22:21;14.10;99.90
20590;DHT22;10453;50.810;12.540;2022-07-12T22:26:39;13.90;99.90
20590;DHT22;10453;50.810;12.540;2022-07-12T22:30:57;13.80;99.90
20590;DHT22;10453;50.810;12.540;2022-07-12T22:35:14;13.80;99.90
20590;DHT22;10453;50.810;12.540;2022-07-12T22:39:31;13.60;99.90
20590;DHT22;10453;50.810;12.540;2022-07-12T22:43:48;13.60;99.90
20590;DHT22;10453;50.810;12.540;2022-07-12T22:48:05;13.70;99.90
20590;DHT22;10453;50.810;12.540;2022-07-12T22:52:23;13.70;99.90
20590;DHT22;10453;50.810;12.540;2022-07-12T22:56:40;13.40;99.90
20590;DHT22;10453;50.810;12.540;2022-07-12T23:01:00;13.30;99.90
20590;DHT22;10453;50.810;12.540;2022-07-12T23:05:18;13.20;99.90
20590;DHT22;10453;50.810;12.540;2022-07-12T23:09:35;13.30;99.90
20590;DHT22;10453;50.810;12.540;2022-07-12T23:13:52;13.20;99.90
20590;DHT22;10453;50.810;12.540;2022-07-12T23:18:09;13.20;99.90
20590;DHT22;10453;50.810;12.540;2022-07-12T23:22:27;13.10;99.90
20590;DHT22;10453;50.810;12.540;2022-07-12T23:26:44;13.10;99.90
20590;DHT22;10453;50.810;12.540;2022-07-12T23:31:02;13.10;99.90
20590;DHT22;10453;50.810;12.540;2022-07-12T23:35:19;13.10;99.90
20590;DHT22;10453;50.810;12.540;2022-07-12T23:39:37;13.00;99.90
20590;DHT22;10453;50.810;12.540;2022-07-12T23:43:54;12.80;99.90
20590;DHT22;10453;50.810;12.540;2022-07-12T23:48:11;12.80;99.90
20590;DHT22;10453;50.810;12.540;2022-07-12T23:52:28;12.80;99.90
20590;DHT22;10453;50.810;12.540;2022-07-12T23:56:46;12.80;99.90
